createdAt,value
2019-05-19T00:01:34.735Z,24.49
2019-05-19T00:03:34.442Z,24.52
2019-05-19T00:05:34.502Z,24.52
2019-05-19T00:06:34.541Z,24.46
2019-05-19T00:07:34.693Z,24.53
2019-05-19T00:08:34.629Z,24.46
2019-05-19T00:09:34.638Z,24.49
2019-05-19T00:10:34.794Z,24.48
2019-05-19T00:12:34.735Z,24.48
2019-05-19T00:13:34.783Z,24.48
2019-05-19T00:14:34.985Z,24.46
2019-05-19T00:15:34.891Z,24.53
2019-05-19T00:16:34.890Z,24.53
2019-05-19T00:18:34.953Z,24.46
2019-05-19T00:19:34.984Z,24.48
2019-05-19T00:20:35.427Z,24.46
2019-05-19T00:21:35.052Z,24.46
2019-05-19T00:22:35.328Z,24.46
2019-05-19T00:23:35.199Z,24.46
2019-05-19T00:24:35.847Z,24.48
2019-05-19T00:25:35.235Z,24.44
2019-05-19T00:26:35.452Z,24.51
2019-05-19T00:29:35.332Z,24.48
2019-05-19T00:30:35.369Z,24.45
2019-05-19T00:31:35.434Z,24.46
2019-05-19T00:32:35.443Z,24.44
2019-05-19T00:33:35.470Z,24.49
2019-05-19T00:34:35.751Z,24.48
2019-05-19T00:36:35.574Z,24.45
2019-05-19T00:37:35.603Z,24.49
2019-05-19T00:38:35.665Z,24.46
2019-05-19T00:39:35.675Z,24.48
2019-05-19T00:40:35.711Z,24.42
2019-05-19T00:41:35.819Z,24.45
2019-05-19T00:42:35.820Z,24.46
2019-05-19T00:43:35.805Z,24.45
2019-05-19T00:44:35.845Z,24.45
2019-05-19T00:46:36.019Z,24.48
2019-05-19T00:47:35.940Z,24.42
2019-05-19T00:48:35.980Z,24.51
2019-05-19T00:49:41.239Z,24.44
2019-05-19T00:50:36.059Z,24.42
2019-05-19T00:51:36.079Z,24.48
2019-05-19T00:52:36.114Z,24.46
2019-05-19T00:53:36.146Z,24.46
2019-05-19T00:54:36.179Z,24.41
2019-05-19T00:55:36.225Z,24.46
2019-05-19T00:56:36.254Z,24.48
2019-05-19T00:57:36.239Z,24.41
2019-05-19T00:58:36.317Z,24.42
2019-05-19T00:59:36.357Z,24.44
2019-05-19T01:00:36.396Z,24.48
2019-05-19T01:02:36.556Z,24.44
2019-05-19T01:03:36.492Z,24.49
2019-05-19T01:04:36.525Z,24.41
2019-05-19T01:05:36.653Z,24.41
2019-05-19T01:06:36.548Z,24.45
2019-05-19T01:07:36.635Z,24.44
2019-05-19T01:08:36.659Z,24.45
2019-05-19T01:10:36.729Z,24.49
2019-05-19T01:11:36.766Z,24.44
2019-05-19T01:12:36.754Z,24.45
2019-05-19T01:13:36.832Z,24.41
2019-05-19T01:14:36.871Z,24.45
2019-05-19T01:16:36.943Z,24.44
2019-05-19T01:17:36.977Z,24.46
2019-05-19T01:18:37.010Z,24.45
2019-05-19T01:19:36.985Z,24.41
2019-05-19T01:20:37.070Z,24.45
2019-05-19T01:21:37.103Z,24.41
2019-05-19T01:22:37.142Z,24.44
2019-05-19T01:23:37.171Z,24.48
2019-05-19T01:24:37.208Z,24.45
2019-05-19T01:25:37.242Z,24.45
2019-05-19T01:26:37.285Z,24.39
2019-05-19T01:27:37.316Z,24.48
2019-05-19T01:28:37.358Z,24.48
2019-05-19T01:30:37.417Z,24.46
2019-05-19T01:31:37.453Z,24.45
2019-05-19T01:32:37.430Z,24.46
2019-05-19T01:33:37.516Z,24.45
2019-05-19T01:34:37.553Z,24.45
2019-05-19T01:35:37.596Z,24.45
2019-05-19T01:36:37.622Z,24.46
2019-05-19T01:37:37.653Z,24.44
2019-05-19T01:38:37.686Z,24.37
2019-05-19T01:41:37.798Z,24.46
2019-05-19T01:42:37.828Z,24.39
2019-05-19T01:43:37.867Z,24.46
2019-05-19T01:44:37.899Z,24.36
2019-05-19T01:46:37.963Z,24.45
2019-05-19T01:47:38.000Z,24.36
2019-05-19T01:48:38.055Z,24.41
2019-05-19T01:49:38.073Z,24.39
2019-05-19T01:50:38.118Z,24.44
2019-05-19T01:51:38.142Z,24.42
2019-05-19T01:53:38.206Z,24.34
2019-05-19T01:54:38.235Z,24.36
2019-05-19T01:55:38.271Z,24.37
2019-05-19T01:56:38.313Z,24.36
2019-05-19T01:57:38.339Z,24.39
2019-05-19T01:58:38.376Z,24.46
2019-05-19T01:59:38.417Z,24.34
2019-05-19T02:00:38.445Z,24.44
2019-05-19T02:01:38.483Z,24.34
2019-05-19T02:02:38.516Z,24.39
2019-05-19T02:03:38.554Z,24.39
2019-05-19T02:04:38.581Z,24.34
2019-05-19T02:05:38.614Z,24.41
2019-05-19T02:06:38.652Z,24.39
2019-05-19T02:08:38.720Z,24.46
2019-05-19T02:09:38.767Z,24.34
2019-05-19T02:10:38.791Z,24.36
2019-05-19T02:11:38.839Z,24.37
2019-05-19T02:12:38.853Z,24.44
2019-05-19T02:13:38.886Z,24.36
2019-05-19T02:14:38.971Z,24.37
2019-05-19T02:17:39.027Z,24.33
2019-05-19T02:18:39.069Z,24.41
2019-05-19T02:19:39.118Z,24.41
2019-05-19T02:20:39.135Z,24.41
2019-05-19T02:21:39.175Z,24.39
2019-05-19T02:22:39.206Z,24.44
2019-05-19T02:23:39.231Z,24.37
2019-05-19T02:24:39.271Z,24.36
2019-05-19T02:25:39.298Z,24.36
2019-05-19T02:26:39.351Z,24.41
2019-05-19T02:27:39.369Z,24.39
2019-05-19T02:28:39.401Z,24.42
2019-05-19T02:29:39.438Z,24.39
2019-05-19T02:30:39.479Z,24.44
2019-05-19T02:31:39.521Z,24.37
2019-05-19T02:32:39.542Z,24.37
2019-05-19T02:33:39.571Z,24.41
2019-05-19T02:34:39.608Z,24.39
2019-05-19T02:35:39.638Z,24.36
2019-05-19T02:37:39.725Z,24.36
2019-05-19T02:38:39.758Z,24.36
2019-05-19T02:39:39.781Z,24.36
2019-05-19T02:40:39.838Z,24.31
2019-05-19T02:41:39.846Z,24.37
2019-05-19T02:42:39.891Z,24.37
2019-05-19T02:43:39.917Z,24.34
2019-05-19T02:44:39.956Z,24.39
2019-05-19T02:45:39.987Z,24.36
2019-05-19T02:47:40.050Z,24.36
2019-05-19T02:48:40.118Z,24.33
2019-05-19T02:49:40.134Z,24.31
2019-05-19T02:50:51.412Z,24.34
2019-05-19T02:53:40.261Z,24.39
2019-05-19T02:54:40.294Z,24.37
2019-05-19T02:55:40.353Z,24.31
2019-05-19T02:56:40.358Z,24.33
2019-05-19T02:57:40.431Z,24.30
2019-05-19T02:59:40.608Z,24.31
2019-05-19T03:00:40.557Z,24.31
2019-05-19T03:02:40.697Z,24.36
2019-05-19T03:03:41.448Z,24.34
2019-05-19T03:04:41.278Z,24.31
2019-05-19T03:05:40.722Z,24.30
2019-05-19T03:07:40.793Z,24.21
2019-05-19T03:08:40.816Z,24.19
2019-05-19T03:09:40.820Z,24.23
2019-05-19T03:10:40.918Z,24.11
2019-05-19T03:11:40.997Z,24.05
2019-05-19T03:12:40.915Z,24.02
2019-05-19T03:13:40.961Z,24.05
2019-05-19T03:15:41.153Z,23.96
2019-05-19T03:16:41.133Z,23.93
2019-05-19T03:17:41.093Z,23.84
2019-05-19T03:18:41.161Z,23.89
2019-05-19T03:19:41.270Z,23.89
2019-05-19T03:20:41.357Z,23.81
2019-05-19T03:21:41.304Z,23.78
2019-05-19T03:22:41.302Z,23.78
2019-05-19T03:23:41.288Z,23.72
2019-05-19T03:24:41.372Z,23.69
2019-05-19T03:27:41.575Z,23.71
2019-05-19T03:28:41.543Z,23.67
2019-05-19T03:29:41.553Z,23.54
2019-05-19T03:30:41.742Z,23.63
2019-05-19T03:31:41.830Z,23.52
2019-05-19T03:32:41.601Z,23.59
2019-05-19T03:33:41.705Z,23.49
2019-05-19T03:34:41.698Z,23.44
2019-05-19T03:36:41.991Z,23.47
2019-05-19T03:37:41.951Z,23.41
2019-05-19T03:38:41.900Z,23.39
2019-05-19T03:39:41.824Z,23.32
2019-05-19T03:41:41.968Z,23.31
2019-05-19T03:42:42.036Z,23.34
2019-05-19T03:43:41.991Z,23.29
2019-05-19T03:44:42.013Z,23.29
2019-05-19T03:46:42.069Z,23.22
2019-05-19T03:47:42.236Z,23.23
2019-05-19T03:48:42.145Z,23.25
2019-05-19T03:49:42.235Z,23.23
2019-05-19T03:50:42.215Z,23.25
2019-05-19T03:51:42.251Z,23.14
2019-05-19T03:52:42.368Z,23.18
2019-05-19T03:54:42.392Z,23.11
2019-05-19T03:58:42.506Z,23.19
2019-05-19T03:59:42.536Z,23.15
2019-05-19T04:00:42.553Z,23.16
2019-05-19T04:02:42.613Z,23.16
2019-05-19T04:03:42.716Z,23.09
2019-05-19T04:04:42.703Z,23.15
2019-05-19T04:05:42.869Z,23.16
2019-05-19T04:06:42.756Z,23.09
2019-05-19T04:08:42.868Z,23.01
2019-05-19T04:12:42.985Z,23.04
2019-05-19T04:13:43.029Z,22.99
2019-05-19T04:15:43.149Z,23.09
2019-05-19T04:16:43.097Z,23.06
2019-05-19T04:18:43.146Z,23.01
2019-05-19T04:19:43.189Z,22.99
2019-05-19T04:20:43.333Z,23.04
2019-05-19T04:21:48.890Z,22.96
2019-05-19T04:22:43.311Z,22.94
2019-05-19T04:23:43.325Z,22.94
2019-05-19T04:24:43.499Z,22.96
2019-05-19T04:25:43.381Z,22.89
2019-05-19T04:27:43.538Z,22.93
2019-05-19T04:29:43.553Z,22.79
2019-05-19T04:30:43.547Z,22.85
2019-05-19T04:32:43.668Z,22.85
2019-05-19T04:33:43.761Z,22.88
2019-05-19T04:34:43.683Z,22.91
2019-05-19T04:36:43.757Z,22.84
2019-05-19T04:37:43.767Z,22.85
2019-05-19T04:38:43.825Z,22.85
2019-05-19T04:39:43.921Z,22.85
2019-05-19T04:40:44.061Z,22.81
2019-05-19T04:41:43.929Z,22.84
2019-05-19T04:42:43.962Z,22.78
2019-05-19T04:43:44.141Z,22.79
2019-05-19T04:44:44.018Z,22.82
2019-05-19T04:45:44.264Z,22.76
2019-05-19T04:46:44.116Z,22.61
2019-05-19T04:47:44.633Z,22.75
2019-05-19T04:48:44.143Z,22.72
2019-05-19T04:49:44.169Z,22.75
2019-05-19T04:51:44.295Z,22.75
2019-05-19T04:52:44.325Z,22.72
2019-05-19T04:53:44.425Z,22.67
2019-05-19T04:54:44.336Z,22.66
2019-05-19T04:55:44.397Z,22.64
2019-05-19T04:56:44.430Z,22.69
2019-05-19T04:57:44.537Z,22.69
2019-05-19T04:58:44.564Z,22.67
2019-05-19T05:00:44.686Z,22.70
2019-05-19T05:01:44.931Z,22.74
2019-05-19T05:02:44.619Z,22.70
2019-05-19T05:03:45.005Z,22.70
2019-05-19T05:04:44.815Z,22.75
2019-05-19T05:05:45.111Z,22.67
2019-05-19T05:06:44.766Z,22.75
2019-05-19T05:07:44.796Z,22.70
2019-05-19T05:08:44.964Z,22.69
2019-05-19T05:09:44.945Z,22.72
2019-05-19T05:10:44.904Z,22.74
2019-05-19T05:11:44.941Z,22.60
2019-05-19T05:12:45.019Z,22.74
2019-05-19T05:13:45.174Z,22.79
2019-05-19T05:14:45.193Z,22.72
2019-05-19T05:15:45.038Z,22.72
2019-05-19T05:16:45.106Z,22.78
2019-05-19T05:17:45.265Z,22.74
2019-05-19T05:19:45.464Z,22.74
2019-05-19T05:21:45.266Z,22.72
2019-05-19T05:22:45.476Z,22.78
2019-05-19T05:23:45.307Z,22.74
2019-05-19T05:25:45.367Z,22.74
2019-05-19T05:27:45.471Z,22.74
2019-05-19T05:29:45.503Z,22.72
2019-05-19T05:30:45.663Z,22.76
2019-05-19T05:31:45.580Z,22.76
2019-05-19T05:32:45.740Z,22.76
2019-05-19T05:33:45.673Z,22.76
2019-05-19T05:34:45.754Z,22.72
2019-05-19T05:35:45.711Z,22.70
2019-05-19T05:36:45.772Z,22.76
2019-05-19T05:37:45.783Z,22.72
2019-05-19T05:38:45.813Z,22.72
2019-05-19T05:39:45.834Z,22.72
2019-05-19T05:40:45.872Z,22.74
2019-05-19T05:41:45.890Z,22.74
2019-05-19T05:42:45.938Z,22.81
2019-05-19T05:43:45.963Z,22.74
2019-05-19T05:44:45.994Z,22.75
2019-05-19T05:45:46.031Z,22.78
2019-05-19T05:46:46.066Z,22.85
2019-05-19T05:47:46.098Z,22.81
2019-05-19T05:48:46.136Z,22.85
2019-05-19T05:49:46.165Z,22.85
2019-05-19T05:50:46.194Z,22.88
2019-05-19T05:51:46.229Z,22.93
2019-05-19T05:52:46.263Z,22.97
2019-05-19T05:53:46.293Z,22.94
2019-05-19T05:54:46.333Z,23.00
2019-05-19T05:55:46.355Z,22.97
2019-05-19T05:56:46.398Z,23.04
2019-05-19T05:58:46.466Z,23.09
2019-05-19T06:00:46.527Z,23.09
2019-05-19T06:01:46.569Z,23.01
2019-05-19T06:02:46.629Z,23.11
2019-05-19T06:03:46.642Z,23.16
2019-05-19T06:04:46.665Z,23.15
2019-05-19T06:05:46.693Z,23.14
2019-05-19T06:06:46.728Z,23.22
2019-05-19T06:07:46.765Z,23.19
2019-05-19T06:08:46.797Z,23.18
2019-05-19T06:09:46.833Z,23.18
2019-05-19T06:10:46.875Z,23.23
2019-05-19T06:11:46.904Z,23.23
2019-05-19T06:12:46.925Z,23.21
2019-05-19T06:13:49.578Z,23.29
2019-05-19T06:14:46.999Z,23.29
2019-05-19T06:15:47.032Z,23.23
2019-05-19T06:16:47.072Z,23.25
2019-05-19T06:17:47.139Z,23.25
2019-05-19T06:18:47.128Z,23.34
2019-05-19T06:19:47.162Z,23.37
2019-05-19T06:20:47.221Z,23.31
2019-05-19T06:21:47.237Z,23.25
2019-05-19T06:22:56.553Z,23.34
2019-05-19T06:23:47.299Z,23.39
2019-05-19T06:24:47.329Z,23.38
2019-05-19T06:25:47.374Z,23.41
2019-05-19T06:26:47.412Z,23.42
2019-05-19T06:27:47.442Z,23.42
2019-05-19T06:28:47.479Z,23.44
2019-05-19T06:29:47.500Z,23.47
2019-05-19T06:30:47.530Z,23.50
2019-05-19T06:31:47.562Z,23.49
2019-05-19T06:32:47.607Z,23.59
2019-05-19T06:33:47.639Z,23.52
2019-05-19T06:34:47.667Z,23.56
2019-05-19T06:35:47.704Z,23.59
2019-05-19T06:36:47.746Z,23.56
2019-05-19T06:37:47.785Z,23.60
2019-05-19T06:38:47.811Z,23.67
2019-05-19T06:39:47.840Z,23.60
2019-05-19T06:40:47.868Z,23.59
2019-05-19T06:41:47.917Z,23.59
2019-05-19T06:42:47.942Z,23.68
2019-05-19T06:43:47.977Z,23.63
2019-05-19T06:44:48.005Z,23.68
2019-05-19T06:45:48.042Z,23.71
2019-05-19T06:46:48.080Z,23.67
2019-05-19T06:47:48.167Z,23.67
2019-05-19T06:48:48.140Z,23.67
2019-05-19T06:49:48.178Z,23.63
2019-05-19T06:51:48.248Z,23.60
2019-05-19T06:52:48.305Z,23.57
2019-05-19T06:53:48.320Z,23.56
2019-05-19T06:54:48.345Z,23.69
2019-05-19T06:55:48.377Z,23.67
2019-05-19T06:56:48.410Z,23.71
2019-05-19T06:57:48.449Z,23.67
2019-05-19T06:58:48.483Z,23.64
2019-05-19T06:59:48.514Z,23.69
2019-05-19T07:00:48.557Z,23.69
2019-05-19T07:01:48.587Z,23.71
2019-05-19T07:03:48.654Z,23.71
2019-05-19T07:04:48.680Z,23.64
2019-05-19T07:05:48.724Z,23.67
2019-05-19T07:06:48.785Z,23.72
2019-05-19T07:07:48.789Z,23.78
2019-05-19T07:08:48.827Z,23.74
2019-05-19T07:09:57.824Z,23.75
2019-05-19T07:10:48.889Z,23.77
2019-05-19T07:11:48.941Z,23.74
2019-05-19T07:12:48.957Z,23.77
2019-05-19T07:13:48.985Z,23.77
2019-05-19T07:14:49.021Z,23.79
2019-05-19T07:15:49.078Z,23.77
2019-05-19T07:16:49.095Z,23.72
2019-05-19T07:17:49.124Z,23.75
2019-05-19T07:18:49.161Z,23.75
2019-05-19T07:19:49.191Z,23.78
2019-05-19T07:20:49.227Z,23.82
2019-05-19T07:21:49.261Z,23.86
2019-05-19T07:22:49.324Z,23.86
2019-05-19T07:23:49.334Z,23.86
2019-05-19T07:24:49.409Z,23.93
2019-05-19T07:25:49.402Z,23.96
2019-05-19T07:26:49.535Z,23.84
2019-05-19T07:27:49.467Z,23.89
2019-05-19T07:28:49.556Z,23.92
2019-05-19T07:29:49.539Z,23.93
2019-05-19T07:30:49.569Z,23.89
2019-05-19T07:31:49.610Z,23.89
2019-05-19T07:32:49.643Z,23.84
2019-05-19T07:33:49.669Z,23.90
2019-05-19T07:34:49.709Z,23.96
2019-05-19T07:35:49.761Z,23.79
2019-05-19T07:36:49.779Z,23.92
2019-05-19T07:37:49.814Z,23.92
2019-05-19T07:38:49.853Z,23.93
2019-05-19T07:39:49.882Z,23.87
2019-05-19T07:40:49.918Z,23.86
2019-05-19T07:42:49.987Z,23.96
2019-05-19T07:43:50.017Z,23.97
2019-05-19T07:44:50.060Z,24.00
2019-05-19T07:45:50.096Z,23.99
2019-05-19T07:46:50.115Z,24.02
2019-05-19T07:47:50.159Z,24.00
2019-05-19T07:48:50.186Z,23.97
2019-05-19T07:49:50.226Z,24.04
2019-05-19T07:50:50.260Z,24.00
2019-05-19T07:51:50.306Z,24.02
2019-05-19T07:52:50.337Z,23.97
2019-05-19T07:53:50.413Z,24.11
2019-05-19T07:54:50.390Z,24.21
2019-05-19T07:55:50.453Z,24.05
2019-05-19T07:56:50.469Z,24.12
2019-05-19T07:57:50.513Z,24.08
2019-05-19T07:58:50.541Z,24.19
2019-05-19T07:59:50.570Z,24.08
2019-05-19T08:00:50.728Z,24.19
2019-05-19T08:01:50.694Z,24.29
2019-05-19T08:02:50.674Z,24.18
2019-05-19T08:03:50.715Z,24.21
2019-05-19T08:04:50.748Z,24.24
2019-05-19T08:05:50.771Z,24.21
2019-05-19T08:06:50.817Z,24.23
2019-05-19T08:07:50.886Z,24.16
2019-05-19T08:08:50.885Z,24.21
2019-05-19T08:09:50.918Z,24.26
2019-05-19T08:10:50.952Z,24.31
2019-05-19T08:12:51.017Z,24.31
2019-05-19T08:14:51.085Z,24.33
2019-05-19T08:15:51.135Z,24.34
2019-05-19T08:16:51.251Z,24.33
2019-05-19T08:17:51.232Z,24.36
2019-05-19T08:18:51.233Z,24.37
2019-05-19T08:19:51.264Z,24.34
2019-05-19T08:20:51.293Z,24.34
2019-05-19T08:21:51.334Z,24.37
2019-05-19T08:22:51.596Z,24.37
2019-05-19T08:25:51.503Z,24.41
2019-05-19T08:26:51.543Z,24.44
2019-05-19T08:28:51.612Z,24.45
2019-05-19T08:29:51.729Z,24.53
2019-05-19T08:30:51.645Z,24.55
2019-05-19T08:31:51.694Z,24.49
2019-05-19T08:32:51.716Z,24.60
2019-05-19T08:33:51.765Z,24.53
2019-05-19T08:34:51.788Z,24.63
2019-05-19T08:35:51.844Z,24.60
2019-05-19T08:36:51.861Z,24.64
2019-05-19T08:37:51.897Z,24.61
2019-05-19T08:38:51.930Z,24.59
2019-05-19T08:39:51.970Z,24.63
2019-05-19T08:40:52.062Z,24.60
2019-05-19T08:41:52.030Z,24.70
2019-05-19T08:42:52.062Z,24.63
2019-05-19T08:43:53.478Z,24.63
2019-05-19T08:44:52.142Z,24.75
2019-05-19T08:45:52.183Z,24.75
2019-05-19T08:46:52.216Z,24.75
2019-05-19T08:47:52.339Z,24.75
2019-05-19T08:48:52.281Z,24.70
2019-05-19T08:49:52.311Z,24.79
2019-05-19T08:50:52.362Z,24.82
2019-05-19T08:51:52.392Z,24.75
2019-05-19T08:52:52.420Z,24.89
2019-05-19T08:54:52.484Z,24.89
2019-05-19T08:55:52.629Z,24.90
2019-05-19T08:56:52.566Z,24.86
2019-05-19T08:57:52.592Z,24.94
2019-05-19T08:58:52.650Z,24.89
2019-05-19T08:59:52.666Z,24.87
2019-05-19T09:01:52.734Z,24.86
2019-05-19T09:03:52.802Z,24.99
2019-05-19T09:04:52.843Z,24.99
2019-05-19T09:05:52.883Z,24.98
2019-05-19T09:06:52.907Z,24.99
2019-05-19T09:07:52.959Z,24.99
2019-05-19T09:08:52.981Z,24.94
2019-05-19T09:09:53.078Z,25.01
2019-05-19T09:10:53.061Z,25.05
2019-05-19T09:11:53.089Z,25.01
2019-05-19T09:12:53.119Z,24.98
2019-05-19T09:13:53.175Z,25.02
2019-05-19T09:14:53.192Z,25.04
2019-05-19T09:15:53.234Z,25.05
2019-05-19T09:16:53.273Z,25.02
2019-05-19T09:17:54.288Z,25.01
2019-05-19T09:18:53.329Z,25.05
2019-05-19T09:19:53.369Z,25.04
2019-05-19T09:20:53.407Z,25.07
2019-05-19T09:21:53.436Z,25.11
2019-05-19T09:22:53.477Z,25.11
2019-05-19T09:23:53.510Z,25.07
2019-05-19T09:24:53.552Z,25.09
2019-05-19T09:25:53.587Z,25.16
2019-05-19T09:27:53.659Z,25.16
2019-05-19T09:28:53.689Z,25.12
2019-05-19T09:29:53.728Z,25.11
2019-05-19T09:30:53.765Z,25.11
2019-05-19T09:31:53.792Z,25.09
2019-05-19T09:32:53.834Z,25.16
2019-05-19T09:33:53.865Z,25.08
2019-05-19T09:34:53.899Z,25.16
2019-05-19T09:35:53.957Z,25.19
2019-05-19T09:36:53.974Z,25.22
2019-05-19T09:37:54.004Z,25.22
2019-05-19T09:38:54.137Z,25.26
2019-05-19T09:39:54.185Z,25.19
2019-05-19T09:40:54.112Z,25.23
2019-05-19T09:41:54.162Z,25.23
2019-05-19T09:42:54.194Z,25.19
2019-05-19T09:43:54.215Z,25.24
2019-05-19T09:44:54.255Z,25.23
2019-05-19T09:45:54.449Z,25.23
2019-05-19T09:46:54.326Z,25.26
2019-05-19T09:47:54.371Z,25.29
2019-05-19T09:48:54.501Z,25.22
2019-05-19T09:49:54.432Z,25.26
2019-05-19T09:50:54.470Z,25.19
2019-05-19T09:51:54.509Z,25.20
2019-05-19T09:52:54.677Z,25.22
2019-05-19T09:53:54.578Z,25.26
2019-05-19T09:54:54.916Z,25.22
2019-05-19T09:55:54.703Z,25.27
2019-05-19T09:56:54.688Z,25.35
2019-05-19T09:57:54.814Z,25.26
2019-05-19T09:58:54.750Z,25.34
2019-05-19T09:59:54.797Z,25.38
2019-05-19T10:00:54.836Z,25.30
2019-05-19T10:01:54.860Z,25.36
2019-05-19T10:02:55.377Z,25.38
2019-05-19T10:04:54.970Z,25.31
2019-05-19T10:05:55.004Z,25.36
2019-05-19T10:06:55.041Z,25.39
2019-05-19T10:08:55.108Z,25.42
2019-05-19T10:09:55.156Z,25.39
2019-05-19T10:10:55.178Z,25.44
2019-05-19T10:12:55.255Z,25.44
2019-05-19T10:13:55.344Z,25.41
2019-05-19T10:14:56.024Z,25.39
2019-05-19T10:15:55.379Z,25.51
2019-05-19T10:16:55.402Z,25.39
2019-05-19T10:17:55.731Z,25.41
2019-05-19T10:18:55.776Z,25.45
2019-05-19T10:19:55.562Z,25.48
2019-05-19T10:20:55.572Z,25.53
2019-05-19T10:21:55.613Z,25.51
2019-05-19T10:22:55.716Z,25.45
2019-05-19T10:23:55.651Z,25.53
2019-05-19T10:25:18.340Z,25.49
2019-05-19T10:25:55.763Z,25.48
2019-05-19T10:26:55.753Z,25.53
2019-05-19T10:27:55.845Z,25.53
2019-05-19T10:28:55.938Z,25.53
2019-05-19T10:29:56.004Z,25.49
2019-05-19T10:30:55.895Z,25.51
2019-05-19T10:32:58.720Z,25.51
2019-05-19T10:33:56.068Z,25.57
2019-05-19T10:34:56.072Z,25.54
2019-05-19T10:35:56.457Z,25.59
2019-05-19T10:36:56.132Z,25.53
2019-05-19T10:37:56.147Z,25.56
2019-05-19T10:38:56.225Z,25.56
2019-05-19T10:39:56.260Z,25.56
2019-05-19T10:41:56.395Z,25.61
2019-05-19T10:42:56.396Z,25.57
2019-05-19T10:43:56.396Z,25.64
2019-05-19T10:44:56.409Z,25.60
2019-05-19T10:45:56.439Z,25.69
2019-05-19T10:46:56.468Z,25.66
2019-05-19T10:47:56.508Z,25.61
2019-05-19T10:48:56.543Z,25.66
2019-05-19T10:49:56.579Z,25.67
2019-05-19T10:50:56.619Z,25.64
2019-05-19T10:51:57.370Z,25.60
2019-05-19T10:52:56.791Z,25.66
2019-05-19T10:53:56.776Z,25.71
2019-05-19T10:54:56.765Z,25.69
2019-05-19T10:55:56.804Z,25.64
2019-05-19T10:56:56.844Z,25.71
2019-05-19T10:57:56.871Z,25.72
2019-05-19T10:58:56.907Z,25.66
2019-05-19T10:59:56.951Z,25.67
2019-05-19T11:00:57.082Z,25.67
2019-05-19T11:01:57.010Z,25.63
2019-05-19T11:02:57.057Z,25.66
2019-05-19T11:03:57.180Z,25.63
2019-05-19T11:04:57.122Z,25.79
2019-05-19T11:05:57.158Z,25.79
2019-05-19T11:06:57.205Z,25.76
2019-05-19T11:07:57.236Z,25.75
2019-05-19T11:08:57.377Z,25.74
2019-05-19T11:09:57.318Z,25.69
2019-05-19T11:10:57.362Z,25.72
2019-05-19T11:11:57.382Z,25.75
2019-05-19T11:12:57.413Z,25.78
2019-05-19T11:13:57.455Z,25.75
2019-05-19T11:14:57.487Z,25.72
2019-05-19T11:15:57.519Z,25.83
2019-05-19T11:16:57.564Z,25.82
2019-05-19T11:17:57.693Z,25.83
2019-05-19T11:18:57.630Z,25.75
2019-05-19T11:19:57.672Z,25.79
2019-05-19T11:20:57.711Z,25.78
2019-05-19T11:21:57.768Z,25.86
2019-05-19T11:22:57.776Z,25.89
2019-05-19T11:23:57.915Z,25.82
2019-05-19T11:24:57.844Z,25.83
2019-05-19T11:25:57.882Z,25.83
2019-05-19T11:26:57.914Z,25.85
2019-05-19T11:27:58.060Z,25.82
2019-05-19T11:28:57.998Z,25.91
2019-05-19T11:29:58.027Z,25.79
2019-05-19T11:30:58.072Z,25.93
2019-05-19T11:31:58.104Z,25.79
2019-05-19T11:32:58.136Z,25.94
2019-05-19T11:33:58.178Z,25.93
2019-05-19T11:34:58.211Z,25.94
2019-05-19T11:35:58.263Z,25.94
2019-05-19T11:36:58.283Z,26.00
2019-05-19T11:37:58.327Z,25.90
2019-05-19T11:39:58.492Z,25.94
2019-05-19T11:40:58.436Z,25.93
2019-05-19T11:41:58.477Z,26.03
2019-05-19T11:42:58.500Z,25.98
2019-05-19T11:44:58.579Z,26.03
2019-05-19T11:45:58.619Z,26.01
2019-05-19T11:46:58.661Z,26.03
2019-05-19T11:47:58.692Z,26.03
2019-05-19T11:48:58.723Z,26.04
2019-05-19T11:49:58.753Z,26.01
2019-05-19T11:50:58.866Z,26.04
2019-05-19T11:51:58.831Z,26.01
2019-05-19T11:52:58.873Z,26.12
2019-05-19T11:53:58.909Z,26.09
2019-05-19T11:54:58.936Z,26.03
2019-05-19T11:56:06.660Z,26.11
2019-05-19T11:56:59.009Z,26.09
2019-05-19T11:57:59.059Z,26.09
2019-05-19T11:58:59.089Z,26.13
2019-05-19T11:59:59.228Z,26.12
2019-05-19T12:00:59.167Z,26.09
2019-05-19T12:01:59.204Z,26.19
2019-05-19T12:02:59.245Z,26.20
2019-05-19T12:03:59.375Z,26.17
2019-05-19T12:04:59.304Z,26.16
2019-05-19T12:05:59.345Z,26.17
2019-05-19T12:06:59.386Z,26.24
2019-05-19T12:08:59.455Z,26.19
2019-05-19T12:10:59.631Z,26.28
2019-05-19T12:11:59.572Z,26.28
2019-05-19T12:12:59.602Z,26.23
2019-05-19T12:13:59.648Z,26.32
2019-05-19T12:14:59.669Z,26.24
2019-05-19T12:15:59.753Z,26.31
2019-05-19T12:16:59.764Z,26.17
2019-05-19T12:17:59.782Z,26.35
2019-05-19T12:18:59.822Z,26.20
2019-05-19T12:19:59.859Z,26.28
2019-05-19T12:20:59.999Z,26.31
2019-05-19T12:21:59.932Z,26.31
2019-05-19T12:22:59.973Z,26.21
2019-05-19T12:24:00.112Z,26.31
2019-05-19T12:25:00.046Z,26.31
2019-05-19T12:26:00.198Z,26.31
2019-05-19T12:27:00.111Z,26.34
2019-05-19T12:28:00.157Z,26.34
2019-05-19T12:29:00.183Z,26.32
2019-05-19T12:30:00.229Z,26.29
2019-05-19T12:31:00.267Z,26.35
2019-05-19T12:32:00.381Z,26.34
2019-05-19T12:33:00.349Z,26.39
2019-05-19T12:34:00.372Z,26.31
2019-05-19T12:35:00.406Z,26.34
2019-05-19T12:36:00.450Z,26.36
2019-05-19T12:37:00.486Z,26.34
2019-05-19T12:38:00.534Z,26.32
2019-05-19T12:39:00.555Z,26.34
2019-05-19T12:40:00.600Z,26.39
2019-05-19T12:41:00.628Z,26.41
2019-05-19T12:42:00.667Z,26.47
2019-05-19T12:43:00.712Z,26.50
2019-05-19T12:44:00.744Z,26.41
2019-05-19T12:45:00.781Z,26.36
2019-05-19T12:46:00.898Z,26.42
2019-05-19T12:47:00.851Z,26.49
2019-05-19T12:48:00.885Z,26.47
2019-05-19T12:49:00.959Z,26.47
2019-05-19T12:50:00.959Z,26.41
2019-05-19T12:51:00.998Z,26.44
2019-05-19T12:52:01.038Z,26.44
2019-05-19T12:53:01.085Z,26.44
2019-05-19T12:54:01.110Z,26.47
2019-05-19T12:55:01.153Z,26.50
2019-05-19T12:56:01.235Z,26.44
2019-05-19T12:57:01.217Z,26.53
2019-05-19T12:59:01.306Z,26.42
2019-05-19T13:00:01.337Z,26.50
2019-05-19T13:01:01.759Z,26.54
2019-05-19T13:03:01.561Z,26.49
2019-05-19T13:04:01.552Z,26.53
2019-05-19T13:05:05.303Z,26.49
2019-05-19T13:06:01.694Z,26.57
2019-05-19T13:08:01.876Z,26.53
2019-05-19T13:09:01.674Z,26.59
2019-05-19T13:10:01.849Z,26.57
2019-05-19T13:11:02.101Z,26.56
2019-05-19T13:12:01.778Z,26.57
2019-05-19T13:13:02.478Z,26.57
2019-05-19T13:14:02.123Z,26.51
2019-05-19T13:16:01.928Z,26.56
2019-05-19T13:17:02.722Z,26.57
2019-05-19T13:18:02.055Z,26.42
2019-05-19T13:19:02.036Z,26.59
2019-05-19T13:21:02.116Z,26.61
2019-05-19T13:22:02.220Z,26.46
2019-05-19T13:23:02.281Z,26.59
2019-05-19T13:24:02.504Z,26.61
2019-05-19T13:25:02.252Z,26.59
2019-05-19T13:26:02.551Z,26.65
2019-05-19T13:27:03.072Z,26.65
2019-05-19T13:28:02.449Z,26.69
2019-05-19T13:30:02.440Z,26.72
2019-05-19T13:31:02.849Z,26.76
2019-05-19T13:32:02.534Z,26.73
2019-05-19T13:33:03.141Z,26.78
2019-05-19T13:34:02.772Z,26.79
2019-05-19T13:35:02.627Z,26.81
2019-05-19T13:36:02.818Z,26.93
2019-05-19T13:37:02.704Z,26.84
2019-05-19T13:38:02.745Z,26.90
2019-05-19T13:39:02.798Z,26.86
2019-05-19T13:40:02.848Z,26.87
2019-05-19T13:41:02.851Z,26.86
2019-05-19T13:42:02.920Z,26.87
2019-05-19T13:43:02.942Z,26.88
2019-05-19T13:44:02.966Z,26.93
2019-05-19T13:45:03.007Z,26.91
2019-05-19T13:46:03.058Z,26.98
2019-05-19T13:47:03.070Z,26.86
2019-05-19T13:48:03.117Z,26.93
2019-05-19T13:49:03.160Z,26.88
2019-05-19T13:50:03.184Z,26.93
2019-05-19T13:51:03.227Z,26.98
2019-05-19T13:52:03.261Z,26.96
2019-05-19T13:53:03.301Z,26.93
2019-05-19T13:54:03.351Z,26.94
2019-05-19T13:55:03.371Z,27.03
2019-05-19T13:56:03.411Z,26.96
2019-05-19T13:57:11.877Z,27.02
2019-05-19T13:58:03.738Z,27.01
2019-05-19T13:59:03.523Z,27.18
2019-05-19T14:00:03.559Z,27.18
2019-05-19T14:01:03.594Z,27.28
2019-05-19T14:02:03.631Z,27.34
2019-05-19T14:03:03.680Z,27.40
2019-05-19T14:04:03.710Z,27.35
2019-05-19T14:05:03.748Z,27.48
2019-05-19T14:06:03.779Z,27.58
2019-05-19T14:07:03.823Z,27.61
2019-05-19T14:08:03.874Z,27.63
2019-05-19T14:09:03.909Z,27.69
2019-05-19T14:10:03.948Z,27.68
2019-05-19T14:11:03.986Z,27.76
2019-05-19T14:12:04.014Z,27.68
2019-05-19T14:13:04.054Z,27.61
2019-05-19T14:14:04.098Z,27.71
2019-05-19T14:15:04.423Z,27.68
2019-05-19T14:16:04.175Z,27.66
2019-05-19T14:17:04.217Z,27.69